Time;durP1;ratioP1;P1;durP2;ratioP2;P2;SDS_P1;SDS_P2;PMS_P1;PMS_P2;Temp;Humidity;BMP_temperature;BMP_pressure;BME280_temperature;BME280_humidity;BME280_pressure;Samples;Min_cycle;Max_cycle;Signal;HPM_P1;HPM_P2
2023/04/06 00:01:27;;;;;;;8.55;7.57;;;2.40;99.90;;;;;;5040646;22;90087;-38
2023/04/06 00:03:53;;;;;;;11.05;7.38;;;2.30;99.90;;;;;;4998750;28;89637;-34
2023/04/06 00:06:18;;;;;;;7.63;6.93;;;2.30;99.90;;;;;;4998616;28;88729;-32
2023/04/06 00:08:44;;;;;;;13.32;7.57;;;2.30;99.90;;;;;;4999473;28;89947;-40
2023/04/06 00:11:10;;;;;;;7.80;6.93;;;2.30;99.90;;;;;;4998022;28;90704;-38
2023/04/06 00:13:36;;;;;;;9.98;7.13;;;2.30;99.90;;;;;;4998117;28;90087;-37
2023/04/06 00:16:01;;;;;;;10.07;7.78;;;2.30;99.90;;;;;;4998280;28;88752;-33
2023/04/06 00:18:27;;;;;;;7.78;7.00;;;2.20;99.90;;;;;;4998807;28;87662;-35
2023/04/06 00:20:53;;;;;;;8.70;6.68;;;2.20;99.90;;;;;;4998520;28;90564;-36
2023/04/06 00:23:18;;;;;;;7.97;6.45;;;2.10;99.90;;;;;;4999111;28;89796;-34
2023/04/06 00:25:44;;;;;;;8.95;7.07;;;2.10;99.90;;;;;;4998785;28;88579;-36
2023/04/06 00:28:09;;;;;;;10.10;7.82;;;2.10;99.90;;;;;;4999077;28;87695;-34
2023/04/06 00:30:35;;;;;;;8.48;7.22;;;2.00;99.90;;;;;;4997908;28;90405;-32
2023/04/06 00:33:01;;;;;;;9.77;7.57;;;2.00;99.90;;;;;;4980559;28;89599;-33
2023/04/06 00:35:26;;;;;;;9.18;7.68;;;2.00;99.90;;;;;;4979266;28;87591;-32
2023/04/06 00:37:52;;;;;;;6.82;6.10;;;2.00;99.90;;;;;;4978738;28;88784;-40
2023/04/06 00:40:18;;;;;;;11.23;6.88;;;2.00;99.90;;;;;;4978080;28;90077;-35
2023/04/06 00:42:43;;;;;;;7.68;6.90;;;1.90;99.90;;;;;;4982842;28;88590;-32
2023/04/06 00:45:09;;;;;;;8.68;6.63;;;1.90;99.90;;;;;;4984194;28;89887;-32
2023/04/06 00:47:35;;;;;;;8.63;7.80;;;1.90;99.90;;;;;;4984295;28;87697;-37
2023/04/06 00:50:01;;;;;;;10.23;8.00;;;1.90;99.90;;;;;;4984410;28;88893;-38
2023/04/06 00:52:27;;;;;;;7.28;6.47;;;1.80;99.90;;;;;;4982665;28;90332;-34
2023/04/06 00:54:53;;;;;;;11.20;7.75;;;1.80;99.90;;;;;;4984468;28;88457;-36
2023/04/06 00:57:19;;;;;;;9.27;8.38;;;1.80;99.90;;;;;;4984003;28;89367;-31
2023/04/06 00:59:45;;;;;;;9.23;7.88;;;1.80;99.90;;;;;;4984415;28;90194;-37
2023/04/06 01:02:10;;;;;;;9.27;7.68;;;1.70;99.90;;;;;;4983904;28;89742;-35
2023/04/06 01:04:36;;;;;;;8.70;7.05;;;1.70;99.90;;;;;;4984799;28;88043;-37
2023/04/06 01:07:02;;;;;;;9.40;8.00;;;1.60;99.90;;;;;;4984150;28;87664;-34
2023/04/06 01:09:31;;;;;;;10.02;7.85;;;1.60;99.90;;;;;;4984728;28;90287;-34
2023/04/06 01:11:57;;;;;;;11.40;8.00;;;1.60;99.90;;;;;;4983435;28;90309;-36
2023/04/06 01:14:24;;;;;;;8.88;7.55;;;1.60;99.90;;;;;;4984507;28;89584;-41
2023/04/06 01:16:51;;;;;;;8.52;7.50;;;1.60;99.90;;;;;;4983583;28;88281;-33
2023/04/06 01:19:16;;;;;;;7.80;6.68;;;1.60;99.90;;;;;;4984303;28;91484;-34
2023/04/06 01:21:42;;;;;;;9.63;7.18;;;1.50;99.90;;;;;;4983352;28;89758;-35
2023/04/06 01:24:09;;;;;;;11.57;8.93;;;1.50;99.90;;;;;;4997233;28;88348;-33
2023/04/06 01:26:35;;;;;;;8.45;7.32;;;1.40;99.90;;;;;;4982142;28;88477;-37
2023/04/06 01:29:02;;;;;;;13.63;7.30;;;1.40;99.90;;;;;;4981561;28;90122;-37
2023/04/06 01:31:28;;;;;;;10.73;8.93;;;1.40;99.90;;;;;;4982789;28;90484;-39
2023/04/06 01:33:54;;;;;;;8.73;7.82;;;1.30;99.90;;;;;;4982239;28;89010;-40
2023/04/06 01:36:20;;;;;;;9.10;8.15;;;1.30;99.90;;;;;;4981535;28;89894;-37
2023/04/06 01:38:46;;;;;;;10.27;7.63;;;1.30;99.90;;;;;;4979500;28;90181;-35
2023/04/06 01:41:11;;;;;;;8.40;7.60;;;1.20;99.90;;;;;;4981560;28;90223;-38
2023/04/06 01:43:37;;;;;;;9.75;8.75;;;1.30;99.90;;;;;;4983329;28;90201;-33
2023/04/06 01:46:04;;;;;;;9.68;8.00;;;1.30;99.90;;;;;;4981758;28;89167;-32
2023/04/06 01:48:29;;;;;;;10.27;7.18;;;1.30;99.90;;;;;;4982086;28;90208;-42
2023/04/06 01:50:56;;;;;;;9.07;8.23;;;1.30;99.90;;;;;;4981019;28;89427;-37
2023/04/06 01:53:22;;;;;;;8.50;7.63;;;1.30;99.90;;;;;;4981180;28;89005;-33
2023/04/06 01:55:47;;;;;;;8.23;7.38;;;1.20;99.90;;;;;;4982892;28;90216;-34
2023/04/06 01:58:13;;;;;;;13.00;9.80;;;1.20;99.90;;;;;;4981023;28;90472;-34
2023/04/06 02:00:39;;;;;;;9.68;7.57;;;1.10;99.90;;;;;;4981591;28;87641;-41
2023/04/06 02:03:05;;;;;;;9.02;7.93;;;1.10;99.90;;;;;;4981878;28;89000;-36
2023/04/06 02:05:38;;;;;;;10.27;7.50;;;1.10;99.90;;;;;;4981534;28;89166;-34
2023/04/06 02:08:05;;;;;;;10.63;7.53;;;1.10;99.90;;;;;;4981090;28;89748;-37
2023/04/06 02:10:31;;;;;;;8.60;7.70;;;1.10;99.90;;;;;;4981604;28;90470;-34
2023/04/06 02:12:57;;;;;;;10.82;8.20;;;1.00;99.90;;;;;;4983644;28;89234;-33
2023/04/06 02:15:23;;;;;;;8.38;6.53;;;1.00;99.90;;;;;;5001664;28;89431;-34
2023/04/06 02:17:48;;;;;;;9.00;7.32;;;1.00;99.90;;;;;;5000644;28;90547;-34
2023/04/06 02:20:14;;;;;;;11.98;8.23;;;0.90;99.90;;;;;;5000014;28;88885;-34
2023/04/06 02:22:40;;;;;;;10.40;8.50;;;0.90;99.90;;;;;;5001040;28;87634;-37
2023/04/06 02:25:06;;;;;;;9.07;7.18;;;0.90;99.90;;;;;;4990390;28;89253;-32
2023/04/06 02:27:32;;;;;;;12.75;7.68;;;0.90;99.90;;;;;;4980455;28;90736;-40
2023/04/06 02:29:57;;;;;;;12.20;8.82;;;0.80;99.90;;;;;;4989913;28;89810;-36
2023/04/06 02:32:23;;;;;;;9.13;8.05;;;0.80;99.90;;;;;;4984862;28;89416;-35
2023/04/06 02:34:49;;;;;;;7.30;6.57;;;0.80;99.90;;;;;;4981185;28;88402;-35
2023/04/06 02:37:14;;;;;;;7.47;6.72;;;0.80;99.90;;;;;;4983773;28;90522;-34
2023/04/06 02:39:40;;;;;;;8.13;7.22;;;0.80;99.90;;;;;;4989789;28;90199;-40
2023/04/06 02:42:06;;;;;;;9.90;7.32;;;0.80;99.90;;;;;;4980697;28;88982;-44
2023/04/06 02:44:31;;;;;;;7.53;6.70;;;0.80;99.90;;;;;;4982442;28;89909;-36
2023/04/06 02:46:57;;;;;;;10.20;7.60;;;0.70;99.90;;;;;;4981627;28;90277;-41
2023/04/06 02:49:23;;;;;;;10.82;8.70;;;0.70;99.90;;;;;;4981138;28;89567;-34
2023/04/06 02:51:48;;;;;;;8.95;7.70;;;0.70;99.90;;;;;;4978976;28;87872;-33
2023/04/06 02:54:14;;;;;;;13.65;10.32;;;0.80;99.90;;;;;;4980358;28;90098;-32
2023/04/06 02:56:39;;;;;;;13.63;9.68;;;0.90;99.90;;;;;;4980026;28;89430;-37
2023/04/06 02:59:05;;;;;;;12.10;8.52;;;0.90;99.90;;;;;;4981347;28;89634;-35
2023/04/06 03:01:31;;;;;;;10.93;7.85;;;0.90;99.90;;;;;;4981022;28;89219;-36
2023/04/06 03:03:56;;;;;;;11.90;8.90;;;0.90;99.90;;;;;;4980598;28;88890;-37
2023/04/06 03:06:22;;;;;;;10.60;8.43;;;0.90;99.90;;;;;;4982069;28;90281;-33
2023/04/06 03:08:48;;;;;;;9.65;7.88;;;0.90;99.90;;;;;;4980772;28;90146;-39
2023/04/06 03:11:13;;;;;;;10.10;6.95;;;0.90;99.90;;;;;;4982339;28;89953;-42
2023/04/06 03:13:39;;;;;;;10.77;8.50;;;0.90;99.90;;;;;;4981053;28;89414;-33
2023/04/06 03:16:05;;;;;;;13.00;10.43;;;0.90;99.90;;;;;;4980867;28;89376;-38
2023/04/06 03:18:32;;;;;;;11.93;9.13;;;0.80;99.90;;;;;;4980558;28;89032;-32
2023/04/06 03:21:00;;;;;;;10.05;8.02;;;0.80;99.90;;;;;;4980373;28;88957;-35
2023/04/06 03:23:25;;;;;;;13.10;9.27;;;0.80;99.90;;;;;;4971579;28;89674;-43
2023/04/06 03:25:51;;;;;;;16.98;9.35;;;0.80;99.90;;;;;;4999421;28;90100;-33
2023/04/06 03:28:17;;;;;;;11.10;9.00;;;0.80;99.90;;;;;;4999412;28;89837;-34
2023/04/06 03:30:42;;;;;;;12.13;9.13;;;0.80;99.90;;;;;;4997861;28;89976;-38
2023/04/06 03:33:08;;;;;;;10.70;8.57;;;0.80;99.90;;;;;;4999617;28;87662;-41
2023/04/06 03:35:34;;;;;;;12.73;8.85;;;0.80;99.90;;;;;;4999780;28;90567;-38
2023/04/06 03:37:59;;;;;;;12.45;9.98;;;0.80;99.90;;;;;;4999240;28;90922;-32
2023/04/06 03:40:25;;;;;;;10.40;9.30;;;0.80;99.90;;;;;;4997666;28;89599;-33
2023/04/06 03:42:51;;;;;;;11.82;9.38;;;0.70;99.90;;;;;;5000015;28;88723;-39
2023/04/06 03:45:16;;;;;;;10.50;9.45;;;0.70;99.90;;;;;;4999057;28;90015;-39
2023/04/06 03:47:42;;;;;;;14.35;10.38;;;0.70;99.90;;;;;;4991724;28;89653;-34
2023/04/06 03:50:08;;;;;;;20.23;10.15;;;0.70;99.90;;;;;;4982011;28;87632;-37
2023/04/06 03:52:35;;;;;;;15.05;9.32;;;0.70;99.90;;;;;;4994606;28;89154;-41
2023/04/06 03:55:00;;;;;;;11.35;9.13;;;0.70;99.90;;;;;;4995079;28;91000;-34
2023/04/06 03:57:26;;;;;;;11.60;8.55;;;0.70;99.90;;;;;;4990811;28;89383;-33
2023/04/06 03:59:52;;;;;;;9.15;8.27;;;0.70;99.90;;;;;;4979796;28;87715;-38
2023/04/06 04:02:17;;;;;;;9.63;8.63;;;0.70;99.90;;;;;;4979577;28;90634;-32
2023/04/06 04:04:43;;;;;;;13.32;8.75;;;0.70;99.90;;;;;;4979534;28;90492;-39
2023/04/06 04:07:08;;;;;;;13.52;9.02;;;0.70;99.90;;;;;;4988688;28;90608;-33
2023/04/06 04:09:34;;;;;;;14.30;9.82;;;0.70;99.90;;;;;;4984578;28;89497;-33
2023/04/06 04:11:59;;;;;;;10.85;9.20;;;0.70;99.90;;;;;;4989005;28;90525;-38
2023/04/06 04:14:25;;;;;;;10.07;8.60;;;0.70;99.90;;;;;;4983565;28;90153;-34
2023/04/06 04:16:51;;;;;;;9.48;8.40;;;0.70;99.90;;;;;;4982657;28;89713;-34
2023/04/06 04:19:16;;;;;;;11.20;7.63;;;0.70;99.90;;;;;;4984806;28;88097;-34
2023/04/06 04:21:44;;;;;;;9.75;8.07;;;0.70;99.90;;;;;;5003147;28;89765;-34
2023/04/06 04:24:10;;;;;;;11.35;8.38;;;0.70;99.90;;;;;;5002480;28;90399;-35
2023/04/06 04:26:36;;;;;;;11.00;8.32;;;0.70;99.90;;;;;;5002207;28;91422;-37
2023/04/06 04:29:01;;;;;;;12.65;7.82;;;0.70;99.90;;;;;;5002161;28;88515;-34
2023/04/06 04:31:27;;;;;;;12.15;8.93;;;0.70;99.90;;;;;;5002532;28;87982;-33
2023/04/06 04:33:52;;;;;;;11.70;8.15;;;0.70;99.90;;;;;;5001633;28;90744;-32
2023/04/06 04:36:18;;;;;;;11.55;7.63;;;0.70;99.90;;;;;;5003164;28;89268;-34
2023/04/06 04:38:43;;;;;;;11.82;8.10;;;0.70;99.90;;;;;;4999530;28;88927;-38
2023/04/06 04:41:09;;;;;;;12.18;7.97;;;0.70;99.90;;;;;;4984314;28;87968;-35
2023/04/06 04:43:35;;;;;;;11.55;8.80;;;0.60;99.90;;;;;;4983483;28;90929;-32
2023/04/06 04:46:00;;;;;;;18.58;9.77;;;0.60;99.90;;;;;;4982485;28;90528;-35
2023/04/06 04:48:26;;;;;;;9.07;7.50;;;0.50;99.90;;;;;;4984211;28;88394;-38
2023/04/06 04:50:52;;;;;;;12.15;10.00;;;0.50;99.90;;;;;;4981086;28;88422;-38
2023/04/06 04:53:17;;;;;;;12.30;8.95;;;0.50;99.90;;;;;;4983183;28;89820;-35
2023/04/06 04:55:43;;;;;;;11.40;8.82;;;0.50;99.90;;;;;;4980962;28;91433;-37
2023/04/06 04:58:10;;;;;;;10.77;8.65;;;0.50;99.90;;;;;;4983918;28;90412;-36
2023/04/06 05:00:36;;;;;;;11.77;8.73;;;0.50;99.90;;;;;;4982855;28;89748;-34
2023/04/06 05:03:04;;;;;;;12.38;10.60;;;0.50;99.90;;;;;;4982827;28;89735;-31
2023/04/06 05:05:30;;;;;;;10.30;9.03;;;0.50;99.90;;;;;;4970182;28;89587;-34
2023/04/06 05:07:56;;;;;;;10.30;8.65;;;0.50;99.90;;;;;;4983503;28;89129;-33
2023/04/06 05:10:21;;;;;;;14.20;9.82;;;0.50;99.90;;;;;;4981998;28;89777;-34
2023/04/06 05:12:47;;;;;;;12.65;9.45;;;0.50;99.90;;;;;;4982879;28;90401;-34
2023/04/06 05:15:13;;;;;;;12.38;10.70;;;0.50;99.90;;;;;;4981769;28;90167;-37
2023/04/06 05:17:38;;;;;;;11.20;8.95;;;0.60;99.90;;;;;;4983054;28;89736;-35
2023/04/06 05:20:06;;;;;;;15.77;8.88;;;0.60;99.90;;;;;;4982190;28;89611;-36
2023/04/06 05:22:32;;;;;;;10.90;8.82;;;0.70;99.90;;;;;;4983349;28;90725;-39
2023/04/06 05:24:57;;;;;;;12.85;10.45;;;0.70;99.90;;;;;;4992372;28;90599;-38
2023/04/06 05:27:23;;;;;;;11.70;9.73;;;0.70;99.90;;;;;;4981148;28;89666;-35
2023/04/06 05:29:49;;;;;;;13.52;10.75;;;0.80;99.90;;;;;;5000039;28;89000;-37
2023/04/06 05:32:14;;;;;;;12.63;9.27;;;0.80;99.90;;;;;;5000094;28;90031;-41
2023/04/06 05:34:40;;;;;;;25.02;11.70;;;0.90;99.90;;;;;;4998484;28;88808;-40
2023/04/06 05:37:06;;;;;;;13.88;9.93;;;0.90;99.90;;;;;;4985180;28;89553;-34
2023/04/06 05:39:31;;;;;;;10.75;9.45;;;0.90;99.90;;;;;;4980064;28;88741;-38
2023/04/06 05:41:57;;;;;;;12.85;10.50;;;1.00;99.90;;;;;;4981135;28;90482;-36
2023/04/06 05:44:23;;;;;;;15.52;9.93;;;1.00;99.90;;;;;;4979027;28;91484;-33
2023/04/06 05:46:48;;;;;;;13.32;9.85;;;1.00;99.90;;;;;;4980987;28;90527;-34
2023/04/06 05:49:14;;;;;;;26.38;10.30;;;1.10;99.90;;;;;;4987383;28;88892;-39
2023/04/06 05:51:39;;;;;;;18.13;10.30;;;1.10;99.90;;;;;;4983634;28;90648;-41
2023/04/06 05:54:05;;;;;;;11.45;9.35;;;1.10;99.90;;;;;;4986948;28;89616;-34
2023/04/06 05:56:31;;;;;;;15.00;9.32;;;1.10;99.90;;;;;;4984882;28;90805;-35
2023/04/06 05:58:57;;;;;;;12.32;9.23;;;1.10;99.90;;;;;;4987809;28;90169;-41
2023/04/06 06:01:23;;;;;;;12.73;9.45;;;1.20;99.90;;;;;;4984075;28;90316;-33
2023/04/06 06:03:48;;;;;;;14.10;8.50;;;1.20;99.90;;;;;;4987349;28;89096;-34
2023/04/06 06:06:14;;;;;;;11.18;8.48;;;1.20;99.90;;;;;;4984905;28;90195;-33
2023/04/06 06:08:40;;;;;;;15.75;9.73;;;1.20;99.90;;;;;;4985201;28;88829;-35
2023/04/06 06:11:05;;;;;;;13.88;9.73;;;1.20;99.90;;;;;;4983374;28;90220;-40
2023/04/06 06:13:31;;;;;;;15.35;10.57;;;1.30;99.90;;;;;;4987568;28;89000;-38
2023/04/06 06:15:56;;;;;;;13.45;10.60;;;1.30;99.90;;;;;;4983743;28;89944;-38
2023/04/06 06:18:22;;;;;;;16.13;9.95;;;1.30;99.90;;;;;;4989529;28;89642;-33
2023/04/06 06:20:47;;;;;;;13.07;9.30;;;1.40;99.90;;;;;;4983918;28;90077;-33
2023/04/06 06:23:13;;;;;;;12.88;10.25;;;1.40;99.90;;;;;;4991262;28;90201;-32
2023/04/06 06:25:39;;;;;;;14.10;10.27;;;1.40;99.90;;;;;;4996576;28;89341;-37
2023/04/06 06:28:05;;;;;;;13.60;9.98;;;1.50;99.90;;;;;;4977746;28;89081;-34
2023/04/06 06:30:30;;;;;;;16.70;10.40;;;1.50;99.90;;;;;;4977442;28;90640;-33
2023/04/06 06:32:56;;;;;;;15.27;10.52;;;1.60;99.90;;;;;;4976210;28;90663;-37
2023/04/06 06:35:22;;;;;;;21.73;11.13;;;1.70;99.90;;;;;;4977812;28;90948;-38
2023/04/06 06:37:47;;;;;;;14.02;11.80;;;1.70;99.90;;;;;;5005726;28;88696;-38
2023/04/06 06:40:15;;;;;;;13.85;10.15;;;1.80;99.90;;;;;;4990465;28;90736;-37
2023/04/06 06:42:40;;;;;;;10.98;9.55;;;1.80;99.90;;;;;;4996916;28;89172;-34
2023/04/06 06:45:07;;;;;;;14.07;9.60;;;1.90;99.90;;;;;;4982853;28;88985;-36
2023/04/06 06:47:32;;;;;;;13.77;9.23;;;2.10;99.90;;;;;;4978389;28;88487;-36
2023/04/06 06:49:58;;;;;;;16.63;11.25;;;2.30;99.90;;;;;;4978060;28;90984;-35
2023/04/06 06:52:24;;;;;;;13.75;11.00;;;2.50;99.90;;;;;;4996783;28;89495;-38
2023/04/06 06:54:49;;;;;;;11.93;10.05;;;2.70;99.90;;;;;;4995934;28;89540;-33
2023/04/06 06:57:15;;;;;;;18.40;10.98;;;2.90;99.90;;;;;;4995881;28;90116;-34
2023/04/06 06:59:41;;;;;;;11.95;9.80;;;3.10;99.90;;;;;;4995541;28;89342;-33
2023/04/06 07:02:07;;;;;;;13.20;10.25;;;3.40;99.90;;;;;;4977681;28;89753;-32
2023/04/06 07:04:32;;;;;;;15.45;11.38;;;3.40;99.90;;;;;;4977317;28;89849;-40
2023/04/06 07:06:58;;;;;;;23.42;12.43;;;3.70;99.90;;;;;;4985175;28;88558;-36
2023/04/06 07:09:23;;;;;;;14.90;11.50;;;3.90;99.90;;;;;;4982067;28;90583;-38
2023/04/06 07:11:49;;;;;;;11.90;10.77;;;4.10;99.90;;;;;;4986352;28;89041;-37
2023/04/06 07:14:16;;;;;;;24.15;11.55;;;4.30;99.90;;;;;;4982987;28;89799;-33
2023/04/06 07:16:41;;;;;;;17.23;10.57;;;4.50;99.90;;;;;;4988003;28;88557;-40
2023/04/06 07:19:09;;;;;;;16.67;10.85;;;4.50;99.90;;;;;;4986012;28;89636;-36
2023/04/06 07:21:35;;;;;;;18.85;11.65;;;4.80;99.90;;;;;;4990018;28;90594;-38
2023/04/06 07:24:01;;;;;;;16.40;12.20;;;5.00;99.90;;;;;;4991495;28;89378;-33
2023/04/06 07:26:27;;;;;;;16.85;13.82;;;5.30;99.90;;;;;;4989299;28;88839;-34
2023/04/06 07:28:53;;;;;;;15.35;11.73;;;5.50;99.90;;;;;;4976268;28;89547;-33
2023/04/06 07:31:18;;;;;;;14.00;12.07;;;5.70;99.90;;;;;;4976831;28;89767;-37
2023/04/06 07:33:44;;;;;;;16.40;12.45;;;5.80;99.90;;;;;;4988970;28;90045;-38
2023/04/06 07:36:10;;;;;;;33.38;12.85;;;6.10;99.90;;;;;;4990984;28;89849;-32
2023/04/06 07:38:36;;;;;;;16.60;13.00;;;6.20;99.90;;;;;;4978923;28;89538;-37
2023/04/06 07:41:03;;;;;;;15.05;11.98;;;6.40;99.90;;;;;;4979943;28;89112;-37
2023/04/06 07:43:30;;;;;;;15.30;12.65;;;6.50;99.90;;;;;;4987919;28;89597;-36
2023/04/06 07:45:57;;;;;;;17.25;10.50;;;6.70;99.90;;;;;;4975922;28;89971;-36
2023/04/06 07:48:22;;;;;;;21.67;11.50;;;7.00;99.90;;;;;;4979984;28;90293;-32
2023/04/06 07:50:48;;;;;;;19.40;11.60;;;7.20;99.90;;;;;;4979869;28;89928;-38
2023/04/06 07:53:14;;;;;;;13.57;12.10;;;7.30;99.90;;;;;;4978308;28;89098;-35
2023/04/06 07:55:39;;;;;;;46.20;13.40;;;7.40;99.90;;;;;;4980522;28;88977;-37
2023/04/06 07:58:05;;;;;;;15.48;11.18;;;7.80;99.90;;;;;;4979126;28;90433;-33
2023/04/06 08:00:31;;;;;;;15.00;10.32;;;8.10;99.90;;;;;;4979945;28;90072;-36
2023/04/06 08:02:57;;;;;;;15.13;12.45;;;8.40;99.90;;;;;;4979461;28;89550;-34
2023/04/06 08:05:22;;;;;;;15.85;11.25;;;8.70;99.90;;;;;;4980260;28;88733;-34
2023/04/06 08:07:48;;;;;;;17.67;12.23;;;8.80;99.90;;;;;;4978763;28;90306;-34
2023/04/06 08:10:13;;;;;;;24.08;13.68;;;8.90;99.90;;;;;;4979437;28;91835;-41
2023/04/06 08:12:39;;;;;;;15.93;12.82;;;8.80;94.30;;;;;;4978101;28;91112;-35
2023/04/06 08:15:05;;;;;;;16.73;13.18;;;8.90;97.50;;;;;;4980468;28;88187;-33
2023/04/06 08:17:32;;;;;;;17.42;12.00;;;9.20;99.50;;;;;;4979059;28;89400;-33
2023/04/06 08:19:57;;;;;;;18.00;11.93;;;9.40;97.50;;;;;;4980669;28;90430;-34
2023/04/06 08:22:23;;;;;;;27.17;12.32;;;9.60;93.50;;;;;;4978630;28;89441;-32
2023/04/06 08:24:49;;;;;;;16.08;11.93;;;9.70;90.50;;;;;;4987098;28;89880;-35
2023/04/06 08:27:14;;;;;;;13.38;11.85;;;10.00;91.00;;;;;;4989135;28;90175;-36
2023/04/06 08:29:40;;;;;;;17.10;12.70;;;10.20;91.40;;;;;;4994502;28;89681;-35
2023/04/06 08:32:06;;;;;;;19.10;12.98;;;10.40;92.30;;;;;;4994465;28;89773;-36
2023/04/06 08:34:33;;;;;;;14.48;11.10;;;10.20;83.00;;;;;;4992163;28;89677;-36
2023/04/06 08:36:59;;;;;;;20.30;14.00;;;10.10;82.10;;;;;;4992700;28;90334;-35
2023/04/06 08:39:27;;;;;;;16.30;13.50;;;10.10;78.50;;;;;;4980644;28;89884;-37
2023/04/06 08:41:56;;;;;;;12.77;11.50;;;9.80;84.70;;;;;;4993286;28;89632;-36
2023/04/06 08:44:22;;;;;;;17.25;13.63;;;10.30;80.60;;;;;;4995523;28;88831;-33
2023/04/06 08:46:48;;;;;;;17.92;11.80;;;10.70;85.20;;;;;;4992779;28;90776;-35
2023/04/06 08:49:15;;;;;;;14.98;11.75;;;11.00;81.00;;;;;;4995162;28;89748;-35
2023/04/06 08:51:42;;;;;;;20.23;13.02;;;11.00;77.80;;;;;;4993648;28;90507;-36
2023/04/06 08:54:08;;;;;;;18.77;12.80;;;11.40;78.70;;;;;;4995073;28;88230;-32
2023/04/06 08:56:38;;;;;;;18.67;13.32;;;11.30;75.70;;;;;;4995160;28;90106;-31
2023/04/06 08:59:04;;;;;;;17.63;12.98;;;11.00;75.90;;;;;;4994081;28;90335;-31
2023/04/06 09:01:33;;;;;;;18.30;11.45;;;11.30;76.50;;;;;;4993147;28;91021;-32
2023/04/06 09:04:04;;;;;;;16.02;13.07;;;11.70;75.00;;;;;;4997565;28;89712;-32
2023/04/06 09:06:30;;;;;;;15.82;13.98;;;11.60;69.80;;;;;;4998486;28;90978;-34
2023/04/06 09:08:57;;;;;;;20.83;10.82;;;11.70;70.40;;;;;;4997791;28;90322;-35
2023/04/06 09:11:23;;;;;;;17.45;12.98;;;11.70;69.60;;;;;;4994445;28;89700;-32
2023/04/06 09:13:55;;;;;;;18.73;12.73;;;11.60;70.50;;;;;;4978443;28;89448;-32
2023/04/06 09:16:22;;;;;;;22.15;13.02;;;11.50;68.80;;;;;;4978636;28;90678;-34
2023/04/06 09:18:49;;;;;;;13.27;11.88;;;11.50;68.20;;;;;;4978834;28;89684;-32
2023/04/06 09:21:18;;;;;;;13.68;12.23;;;11.60;69.80;;;;;;4977606;28;89742;-33
2023/04/06 09:23:44;;;;;;;19.42;13.18;;;11.90;68.70;;;;;;4988827;28;90108;-35
2023/04/06 09:26:11;;;;;;;16.73;12.20;;;12.10;69.10;;;;;;4984480;28;90194;-36
2023/04/06 09:28:50;;;;;;;19.50;14.82;;;12.10;69.60;;;;;;4986658;28;89541;-36
2023/04/06 09:31:21;;;;;;;37.72;14.88;;;12.00;70.70;;;;;;4977557;28;89510;-33
2023/04/06 09:33:47;;;;;;;18.98;12.20;;;12.50;69.50;;;;;;4978666;28;87587;-32
2023/04/06 09:36:15;;;;;;;32.03;15.07;;;12.30;65.80;;;;;;4978217;28;90431;-34
2023/04/06 09:38:55;;;;;;;20.17;14.73;;;12.50;67.80;;;;;;4977708;28;89243;-33
2023/04/06 09:41:28;;;;;;;18.83;13.73;;;12.50;65.60;;;;;;4976627;28;88902;-33
2023/04/06 09:44:13;;;;;;;24.15;13.75;;;12.50;67.70;;;;;;4978129;28;89084;-34
2023/04/06 09:46:44;;;;;;;17.80;13.02;;;12.70;67.80;;;;;;4978206;28;89043;-33
2023/04/06 09:49:11;;;;;;;17.85;13.07;;;12.80;66.80;;;;;;4977602;28;91061;-36
2023/04/06 09:51:44;;;;;;;21.08;15.75;;;12.60;62.80;;;;;;4977261;28;88986;-33
2023/04/06 09:54:14;;;;;;;19.77;14.25;;;12.50;63.60;;;;;;4978197;28;89486;-35
2023/04/06 09:56:46;;;;;;;18.02;15.13;;;12.30;63.60;;;;;;4993075;28;89259;-35
2023/04/06 09:59:36;;;;;;;19.35;14.98;;;12.40;65.10;;;;;;4997707;28;89907;-36
2023/04/06 10:02:07;;;;;;;21.27;15.05;;;12.50;66.20;;;;;;4996420;28;90351;-35
2023/04/06 10:04:51;;;;;;;21.08;15.70;;;12.30;62.60;;;;;;4996995;28;88472;-35
2023/04/06 10:07:17;;;;;;;22.08;15.23;;;12.30;64.00;;;;;;4997519;28;90352;-35
2023/04/06 10:09:46;;;;;;;31.27;18.25;;;12.20;62.40;;;;;;4996536;28;89841;-32
2023/04/06 10:12:13;;;;;;;19.80;16.65;;;12.20;64.50;;;;;;4996623;28;90016;-35
2023/04/06 10:14:39;;;;;;;19.88;15.90;;;12.30;65.10;;;;;;4979929;28;89205;-33
2023/04/06 10:17:05;;;;;;;21.52;15.73;;;12.40;67.20;;;;;;4977413;28;89573;-36
2023/04/06 10:19:52;;;;;;;26.88;16.70;;;12.60;66.40;;;;;;4977299;28;89305;-34
2023/04/06 10:22:41;;;;;;;23.65;17.73;;;12.60;63.20;;;;;;4978047;28;89442;-31
2023/04/06 10:25:08;;;;;;;26.65;17.67;;;12.70;65.10;;;;;;4966956;28;88303;-35
2023/04/06 10:27:34;;;;;;;26.00;18.95;;;12.80;63.10;;;;;;4989836;28;89211;-35
2023/04/06 10:30:05;;;;;;;23.23;17.10;;;12.80;61.50;;;;;;4977098;28;90228;-36
2023/04/06 10:32:38;;;;;;;127.13;31.77;;;12.90;63.60;;;;;;4977079;28;88516;-33
2023/04/06 10:35:12;;;;;;;28.45;18.30;;;12.90;62.00;;;;;;4977194;28;88043;-32
2023/04/06 10:37:50;;;;;;;21.35;17.55;;;13.10;61.70;;;;;;4976868;28;89741;-33
2023/04/06 10:40:27;;;;;;;20.25;15.75;;;13.20;62.20;;;;;;4989190;28;90145;-32
2023/04/06 10:42:54;;;;;;;32.78;19.70;;;13.20;61.80;;;;;;4988299;28;91064;-33
2023/04/06 10:45:21;;;;;;;27.55;22.05;;;13.20;62.00;;;;;;4992784;28;89297;-36
2023/04/06 10:47:46;;;;;;;27.75;17.85;;;13.20;60.40;;;;;;4994813;28;90254;-34
2023/04/06 10:50:15;;;;;;;27.00;19.95;;;13.30;60.50;;;;;;4995738;28;90413;-36
2023/04/06 10:52:41;;;;;;;25.15;19.60;;;13.10;59.40;;;;;;4986859;28;89783;-37
2023/04/06 10:55:10;;;;;;;28.08;21.80;;;13.10;61.80;;;;;;4976572;28;89746;-34
2023/04/06 10:57:36;;;;;;;30.35;21.23;;;13.20;60.50;;;;;;4977195;28;89823;-34
2023/04/06 11:00:04;;;;;;;32.33;21.38;;;13.20;61.10;;;;;;4976457;28;89253;-35
2023/04/06 11:02:31;;;;;;;30.67;21.85;;;13.00;60.50;;;;;;4976526;28;89354;-37
2023/04/06 11:04:58;;;;;;;41.72;22.30;;;13.20;61.90;;;;;;4976577;28;89373;-33
2023/04/06 11:07:29;;;;;;;30.17;22.55;;;13.30;61.40;;;;;;4987477;28;90563;-35
2023/04/06 11:09:56;;;;;;;29.75;22.02;;;13.20;61.30;;;;;;4977488;28;88772;-33
2023/04/06 11:12:26;;;;;;;30.48;20.40;;;13.30;62.40;;;;;;4976038;28;89817;-33
2023/04/06 11:15:00;;;;;;;32.42;22.73;;;13.30;61.70;;;;;;4975894;28;88560;-37
2023/04/06 11:17:31;;;;;;;26.05;21.10;;;13.30;63.00;;;;;;4974899;28;90311;-34
2023/04/06 11:19:57;;;;;;;24.10;20.35;;;13.60;62.50;;;;;;4976668;28;89484;-37
2023/04/06 11:22:24;;;;;;;32.70;22.50;;;14.00;62.70;;;;;;4976996;28;89762;-33
2023/04/06 11:24:49;;;;;;;29.95;24.02;;;13.90;61.30;;;;;;4987763;28;88387;-34
2023/04/06 11:27:16;;;;;;;37.30;23.27;;;13.90;59.30;;;;;;4976069;28;90633;-35
2023/04/06 11:29:42;;;;;;;34.45;24.15;;;13.80;60.50;;;;;;4975455;28;89282;-36
2023/04/06 11:32:08;;;;;;;45.03;25.95;;;13.90;59.70;;;;;;4976695;28;89787;-32
2023/04/06 11:34:38;;;;;;;35.90;23.58;;;13.90;60.60;;;;;;4977113;28;89035;-36
2023/04/06 11:37:08;;;;;;;34.67;22.73;;;13.80;60.60;;;;;;4976740;28;88599;-37
2023/04/06 11:39:56;;;;;;;30.63;22.00;;;13.80;60.50;;;;;;4976397;28;89024;-34
2023/04/06 11:42:29;;;;;;;32.95;23.52;;;13.90;59.30;;;;;;4977079;28;89975;-33
2023/04/06 11:44:58;;;;;;;33.92;23.23;;;14.00;58.70;;;;;;4976295;28;89288;-33
2023/04/06 11:47:32;;;;;;;29.15;22.33;;;13.70;59.00;;;;;;4976128;28;90450;-34
2023/04/06 11:50:07;;;;;;;28.13;20.92;;;13.70;57.70;;;;;;4976683;28;89611;-35
2023/04/06 11:52:32;;;;;;;38.35;23.85;;;13.70;59.10;;;;;;4975974;28;89810;-33
2023/04/06 11:54:58;;;;;;;34.80;23.58;;;13.60;59.60;;;;;;4976503;28;89011;-35
2023/04/06 11:57:25;;;;;;;38.88;23.88;;;13.60;59.60;;;;;;4976226;28;90143;-36
2023/04/06 11:59:51;;;;;;;30.42;24.08;;;13.80;60.00;;;;;;4976196;28;89871;-36
2023/04/06 12:02:17;;;;;;;34.35;25.05;;;13.70;57.70;;;;;;5019579;22;89208;-33
2023/04/06 12:04:43;;;;;;;31.92;23.92;;;13.50;58.40;;;;;;4995856;28;88735;-34
2023/04/06 12:07:09;;;;;;;33.47;25.08;;;13.40;60.10;;;;;;4995916;28;90171;-35
2023/04/06 12:09:36;;;;;;;29.13;22.55;;;13.50;58.90;;;;;;4994618;28;89628;-32
2023/04/06 12:12:02;;;;;;;30.15;22.40;;;13.40;59.40;;;;;;4995659;28;89436;-38
2023/04/06 12:14:27;;;;;;;33.00;24.92;;;13.30;60.90;;;;;;4979065;28;89581;-34
2023/04/06 12:16:53;;;;;;;33.85;24.48;;;13.30;60.10;;;;;;4994921;28;90438;-34
2023/04/06 12:19:19;;;;;;;42.65;24.13;;;13.40;60.30;;;;;;4995041;28;90633;-35
2023/04/06 12:21:44;;;;;;;31.73;24.90;;;13.30;59.80;;;;;;4994689;28;90709;-37
2023/04/06 12:24:10;;;;;;;33.75;23.30;;;13.50;60.90;;;;;;4982655;28;89497;-34
2023/04/06 12:26:37;;;;;;;30.45;21.88;;;13.50;60.90;;;;;;4996044;28;90200;-34
2023/04/06 12:29:08;;;;;;;33.30;22.08;;;13.50;60.90;;;;;;4994740;28;90007;-32
2023/04/06 12:31:35;;;;;;;32.28;25.90;;;13.50;58.90;;;;;;4995424;28;90639;-32
2023/04/06 12:34:03;;;;;;;29.02;22.17;;;13.40;59.10;;;;;;4995058;28;88177;-33
2023/04/06 12:36:28;;;;;;;37.08;24.95;;;13.30;58.70;;;;;;4979595;28;89873;-35
2023/04/06 12:38:56;;;;;;;28.58;23.98;;;13.40;57.50;;;;;;4998222;28;89294;-35